createdAt,value
2022-12-26T00:00:22.820Z,9.73
2022-12-26T00:02:49.391Z,9.75
2022-12-26T00:05:15.839Z,8.52
2022-12-26T00:07:42.532Z,9.82
2022-12-26T00:10:09.089Z,9.65
2022-12-26T00:12:35.590Z,9.63
2022-12-26T00:15:02.217Z,8.68
2022-12-26T00:17:28.713Z,9.10
2022-12-26T00:19:55.163Z,9.18
2022-12-26T00:22:21.670Z,8.25
2022-12-26T00:24:48.117Z,8.50
2022-12-26T00:27:14.464Z,9.80
2022-12-26T00:29:40.881Z,10.32
2022-12-26T00:32:07.331Z,10.30
2022-12-26T00:34:33.700Z,9.88
2022-12-26T00:37:00.297Z,9.93
2022-12-26T00:39:27.040Z,10.15
2022-12-26T00:41:53.401Z,10.15
2022-12-26T00:44:19.868Z,10.85
2022-12-26T00:46:46.295Z,11.00
2022-12-26T00:49:12.705Z,11.93
2022-12-26T00:51:39.201Z,12.85
2022-12-26T00:54:05.588Z,12.48
2022-12-26T00:56:32.086Z,12.52
2022-12-26T00:58:58.457Z,13.07
2022-12-26T01:01:25.130Z,11.27
2022-12-26T01:03:52.187Z,11.77
2022-12-26T01:06:18.668Z,11.35
2022-12-26T01:08:45.123Z,11.13
2022-12-26T01:11:14.708Z,10.85
2022-12-26T01:13:42.069Z,11.80
2022-12-26T01:16:08.665Z,12.02
2022-12-26T01:18:35.825Z,11.68
2022-12-26T01:21:06.039Z,11.68
2022-12-26T01:23:32.618Z,10.50
2022-12-26T01:26:18.342Z,10.00
2022-12-26T01:28:45.553Z,12.00
2022-12-26T01:31:11.978Z,9.88
2022-12-26T01:33:38.455Z,9.93
2022-12-26T01:36:05.252Z,10.07
2022-12-26T01:38:31.666Z,8.55
2022-12-26T01:41:16.416Z,8.45
2022-12-26T01:44:01.231Z,7.47
2022-12-26T01:46:31.765Z,7.45
2022-12-26T01:49:02.270Z,6.50
2022-12-26T01:51:33.573Z,6.85
2022-12-26T01:54:40.391Z,7.63
2022-12-26T01:56:51.341Z,7.22
2022-12-26T01:59:22.486Z,6.57
2022-12-26T02:01:51.839Z,7.53
2022-12-26T02:04:44.527Z,6.10
2022-12-26T02:07:11.216Z,6.47
2022-12-26T02:09:38.980Z,6.22
2022-12-26T02:12:36.676Z,5.70
2022-12-26T02:15:12.381Z,7.18
2022-12-26T02:17:40.146Z,7.15
2022-12-26T02:20:17.238Z,7.55
2022-12-26T02:23:24.186Z,8.20
2022-12-26T02:26:14.063Z,8.93
2022-12-26T02:29:02.532Z,9.13
2022-12-26T02:31:43.792Z,9.05
2022-12-26T02:34:49.356Z,9.60
2022-12-26T02:37:31.801Z,9.48
2022-12-26T02:40:17.450Z,11.30
2022-12-26T02:42:59.242Z,11.48
2022-12-26T02:46:02.522Z,11.40
2022-12-26T02:48:57.672Z,11.48
2022-12-26T02:52:07.923Z,11.57
2022-12-26T02:55:10.608Z,12.40
2022-12-26T02:58:09.549Z,12.07
2022-12-26T03:00:59.707Z,12.20
2022-12-26T03:03:48.980Z,11.55
2022-12-26T03:06:38.747Z,12.05
2022-12-26T03:09:29.308Z,11.20
2022-12-26T03:12:37.555Z,10.82
2022-12-26T03:15:12.174Z,10.90
2022-12-26T03:17:42.940Z,10.77
2022-12-26T03:20:20.060Z,11.80
2022-12-26T03:23:11.072Z,9.75
2022-12-26T03:26:20.914Z,10.43
2022-12-26T03:28:48.963Z,9.57
2022-12-26T03:31:15.929Z,11.43
2022-12-26T03:34:05.575Z,9.32
2022-12-26T03:36:31.859Z,10.57
2022-12-26T03:39:45.630Z,11.18
2022-12-26T03:43:17.202Z,10.60
2022-12-26T03:46:31.196Z,10.38
2022-12-26T03:49:25.035Z,12.10
2022-12-26T03:52:18.391Z,12.35
2022-12-26T03:55:14.981Z,11.18
2022-12-26T03:58:26.877Z,10.60
2022-12-26T04:01:14.485Z,11.07
2022-12-26T04:04:02.279Z,11.30
2022-12-26T04:06:58.146Z,10.60
2022-12-26T04:09:51.270Z,10.68
2022-12-26T04:12:42.609Z,10.85
2022-12-26T04:15:41.654Z,10.07
2022-12-26T04:18:35.674Z,10.30
2022-12-26T04:21:34.602Z,9.55
2022-12-26T04:24:31.639Z,11.25
2022-12-26T04:27:21.161Z,10.23
2022-12-26T04:30:06.665Z,10.48
2022-12-26T04:32:58.608Z,10.63
2022-12-26T04:35:51.106Z,11.20
2022-12-26T04:38:43.053Z,10.60
2022-12-26T04:41:30.498Z,10.25
2022-12-26T04:44:03.680Z,11.52
2022-12-26T04:46:32.168Z,11.07
2022-12-26T04:49:18.711Z,12.05
2022-12-26T04:51:45.142Z,12.07
2022-12-26T04:54:11.489Z,13.38
2022-12-26T04:56:37.873Z,12.88
2022-12-26T04:59:04.277Z,12.57
2022-12-26T05:01:49.389Z,11.23
2022-12-26T05:04:36.493Z,12.55
2022-12-26T05:07:24.072Z,12.48
2022-12-26T05:09:53.441Z,11.98
2022-12-26T05:12:21.025Z,12.05
2022-12-26T05:14:47.486Z,12.63
2022-12-26T05:17:32.958Z,12.35
2022-12-26T05:20:18.180Z,11.80
2022-12-26T05:23:04.082Z,13.05
2022-12-26T05:25:53.248Z,13.02
2022-12-26T05:28:38.831Z,12.55
2022-12-26T05:31:06.083Z,12.85
2022-12-26T05:33:51.359Z,12.55
2022-12-26T05:36:20.223Z,12.35
2022-12-26T05:38:48.109Z,13.30
2022-12-26T05:41:15.243Z,14.00
2022-12-26T05:43:41.802Z,13.52
2022-12-26T05:46:08.221Z,13.50
2022-12-26T05:48:34.772Z,13.63
2022-12-26T05:51:02.646Z,13.10
2022-12-26T05:53:30.210Z,13.85
2022-12-26T05:56:10.721Z,13.30
2022-12-26T05:58:37.887Z,12.73
2022-12-26T06:01:12.519Z,13.05
2022-12-26T06:03:40.022Z,13.80
2022-12-26T06:06:07.067Z,14.13
2022-12-26T06:08:33.590Z,13.50
2022-12-26T06:11:03.536Z,14.85
2022-12-26T06:13:29.927Z,15.15
2022-12-26T06:15:56.383Z,14.38
2022-12-26T06:18:22.856Z,16.17
2022-12-26T06:20:49.259Z,15.77
2022-12-26T06:23:15.782Z,16.83
2022-12-26T06:25:42.305Z,17.95
2022-12-26T06:28:08.665Z,16.90
2022-12-26T06:30:35.084Z,17.52
2022-12-26T06:33:01.458Z,16.88
2022-12-26T06:35:27.848Z,17.60
2022-12-26T06:37:54.263Z,18.58
2022-12-26T06:40:20.804Z,16.92
2022-12-26T06:42:47.159Z,15.82
2022-12-26T06:45:13.562Z,16.27
2022-12-26T06:47:39.979Z,15.95
2022-12-26T06:50:06.751Z,15.63
2022-12-26T06:52:33.130Z,15.48
2022-12-26T06:54:59.744Z,15.05
2022-12-26T06:57:26.277Z,15.77
2022-12-26T06:59:53.397Z,15.07
2022-12-26T07:02:19.861Z,14.18
2022-12-26T07:04:46.333Z,14.52
2022-12-26T07:07:12.717Z,14.10
2022-12-26T07:09:39.143Z,14.43
2022-12-26T07:12:05.974Z,13.25
2022-12-26T07:14:32.447Z,13.82
2022-12-26T07:16:58.948Z,13.43
2022-12-26T07:19:25.367Z,13.25
2022-12-26T07:21:51.843Z,14.00
2022-12-26T07:24:21.065Z,13.80
2022-12-26T07:26:48.502Z,13.90
2022-12-26T07:29:15.673Z,14.73
2022-12-26T07:31:42.662Z,14.93
2022-12-26T07:34:09.153Z,14.82
2022-12-26T07:36:35.863Z,14.98
2022-12-26T07:39:02.698Z,14.52
2022-12-26T07:41:48.190Z,16.60
2022-12-26T07:44:14.727Z,16.15
2022-12-26T07:46:41.161Z,16.85
2022-12-26T07:49:08.083Z,17.27
2022-12-26T07:51:34.516Z,18.48
2022-12-26T07:54:05.502Z,17.45
2022-12-26T07:56:35.580Z,17.88
2022-12-26T07:59:02.018Z,18.20
2022-12-26T08:01:28.731Z,17.92
2022-12-26T08:03:55.200Z,17.95
2022-12-26T08:06:22.607Z,18.92
2022-12-26T08:08:51.554Z,19.35
2022-12-26T08:11:22.321Z,18.13
2022-12-26T08:13:48.970Z,19.25
2022-12-26T08:16:15.836Z,19.83
2022-12-26T08:18:42.712Z,18.52
2022-12-26T08:21:10.308Z,19.65
2022-12-26T08:23:36.806Z,20.42
2022-12-26T08:26:11.653Z,19.23
2022-12-26T08:28:41.532Z,20.85
2022-12-26T08:31:09.780Z,22.45
2022-12-26T08:33:36.610Z,21.52
2022-12-26T08:36:05.479Z,21.90
2022-12-26T08:38:34.121Z,22.23
2022-12-26T08:41:00.912Z,22.17
2022-12-26T08:43:52.749Z,22.33
2022-12-26T08:46:13.889Z,22.20
2022-12-26T08:48:41.228Z,23.50
2022-12-26T08:51:12.030Z,24.83
2022-12-26T08:53:38.427Z,22.70
2022-12-26T08:56:06.680Z,23.48
2022-12-26T08:58:33.858Z,22.20
2022-12-26T09:01:13.251Z,21.13
2022-12-26T09:03:40.401Z,21.40
2022-12-26T09:06:08.058Z,21.45
2022-12-26T09:08:35.791Z,19.63
2022-12-26T09:11:10.383Z,19.92
2022-12-26T09:13:38.376Z,20.73
2022-12-26T09:16:12.710Z,21.08
2022-12-26T09:18:39.593Z,20.13
2022-12-26T09:21:08.553Z,21.52
2022-12-26T09:23:36.166Z,21.48
2022-12-26T09:26:29.280Z,21.15
2022-12-26T09:28:56.216Z,23.13
2022-12-26T09:31:27.712Z,21.95
2022-12-26T09:33:54.330Z,22.25
2022-12-26T09:36:24.868Z,20.73
2022-12-26T09:38:52.398Z,21.90
2022-12-26T09:41:36.371Z,21.15
2022-12-26T09:44:15.029Z,20.02
2022-12-26T09:46:55.939Z,21.10
2022-12-26T09:49:28.404Z,19.45
2022-12-26T09:52:00.504Z,20.48
2022-12-26T09:54:46.780Z,19.73
2022-12-26T09:57:19.859Z,20.10
2022-12-26T09:59:52.207Z,19.70
2022-12-26T10:02:22.229Z,19.55
2022-12-26T10:04:49.179Z,19.23
2022-12-26T10:07:37.007Z,17.55
2022-12-26T10:10:09.500Z,18.48
2022-12-26T10:12:40.258Z,17.80
2022-12-26T10:15:18.429Z,17.85
2022-12-26T10:18:24.408Z,16.98
2022-12-26T10:21:05.660Z,17.05
2022-12-26T10:23:39.927Z,16.10
2022-12-26T10:26:15.270Z,16.83
2022-12-26T10:28:51.541Z,15.68
2022-12-26T10:31:37.245Z,16.42
2022-12-26T10:34:03.628Z,16.45
2022-12-26T10:36:42.637Z,16.52
2022-12-26T10:39:19.239Z,16.52
2022-12-26T10:41:50.191Z,16.60
2022-12-26T10:44:16.904Z,15.68
2022-12-26T10:47:11.397Z,16.13
2022-12-26T10:49:38.268Z,14.80
2022-12-26T10:52:04.891Z,15.25
2022-12-26T10:54:31.357Z,15.93
2022-12-26T10:57:00.023Z,15.73
2022-12-26T10:59:41.637Z,16.27
2022-12-26T11:02:15.328Z,16.42
2022-12-26T11:07:51.085Z,14.23
2022-12-26T11:10:27.485Z,15.15
2022-12-26T11:13:01.029Z,15.80
2022-12-26T11:15:39.359Z,15.57
2022-12-26T11:18:36.307Z,14.75
2022-12-26T11:21:19.869Z,13.63
2022-12-26T11:23:49.469Z,15.52
2022-12-26T11:26:24.953Z,14.13
2022-12-26T11:29:08.660Z,13.88
2022-12-26T11:31:41.284Z,13.27
2022-12-26T11:34:19.788Z,14.48
2022-12-26T11:36:49.536Z,15.73
2022-12-26T11:39:25.921Z,14.05
2022-12-26T11:41:53.027Z,13.40
2022-12-26T11:44:29.034Z,13.88
2022-12-26T11:47:05.917Z,12.85
2022-12-26T11:49:45.854Z,12.85
2022-12-26T11:52:30.935Z,12.18
2022-12-26T11:54:57.473Z,12.80
2022-12-26T11:57:33.457Z,12.30
2022-12-26T12:00:18.892Z,12.48
2022-12-26T12:02:46.043Z,12.05
2022-12-26T12:05:16.090Z,11.48
2022-12-26T12:08:03.364Z,11.30
2022-12-26T12:10:54.883Z,11.48
2022-12-26T12:13:50.496Z,11.82
2022-12-26T12:16:36.682Z,12.43
2022-12-26T12:19:35.611Z,12.25
2022-12-26T12:22:34.314Z,11.30
2022-12-26T12:25:19.795Z,11.50
2022-12-26T12:27:48.929Z,11.18
2022-12-26T12:30:18.379Z,10.90
2022-12-26T12:33:04.999Z,11.95
2022-12-26T12:35:46.275Z,11.27
2022-12-26T12:38:36.274Z,11.93
2022-12-26T12:41:38.031Z,11.02
2022-12-26T12:44:08.619Z,11.45
2022-12-26T12:46:55.185Z,12.20
2022-12-26T12:49:34.912Z,10.77
2022-12-26T12:52:29.037Z,10.68
2022-12-26T12:55:17.611Z,9.98
2022-12-26T12:58:03.854Z,8.95
2022-12-26T13:00:39.551Z,9.48
2022-12-26T13:03:27.053Z,8.80
2022-12-26T13:06:02.453Z,10.10
2022-12-26T13:08:40.178Z,9.38
2022-12-26T13:11:26.493Z,9.93
2022-12-26T13:14:06.591Z,10.98
2022-12-26T13:16:43.592Z,11.07
2022-12-26T13:19:22.444Z,10.93
2022-12-26T13:21:50.389Z,11.75
2022-12-26T13:24:36.286Z,8.30
2022-12-26T13:27:13.540Z,8.23
2022-12-26T13:29:45.665Z,8.20
2022-12-26T13:32:30.628Z,6.88
2022-12-26T13:34:59.455Z,3.78
2022-12-26T13:37:37.935Z,2.78
2022-12-26T13:40:17.750Z,3.05
2022-12-26T13:43:05.794Z,1.70
2022-12-26T13:45:38.277Z,2.17
2022-12-26T13:48:17.146Z,2.10
2022-12-26T13:50:55.213Z,1.70
2022-12-26T13:53:39.274Z,1.75
2022-12-26T13:56:18.798Z,1.65
2022-12-26T13:59:00.425Z,1.40
2022-12-26T14:01:46.525Z,1.85
2022-12-26T14:04:49.894Z,1.40
2022-12-26T14:07:50.168Z,1.73
2022-12-26T14:10:54.562Z,1.55
2022-12-26T14:14:02.234Z,1.90
2022-12-26T14:16:50.297Z,1.80
2022-12-26T14:19:43.543Z,1.83
2022-12-26T14:22:26.527Z,1.80
2022-12-26T14:25:20.151Z,1.88
2022-12-26T14:27:55.687Z,1.58
2022-12-26T14:30:30.519Z,2.13
2022-12-26T14:33:15.109Z,2.50
2022-12-26T14:35:47.564Z,1.73
2022-12-26T14:38:44.080Z,1.58
2022-12-26T14:41:33.935Z,1.80
2022-12-26T14:44:36.615Z,2.20
2022-12-26T14:47:05.140Z,2.05
2022-12-26T14:49:35.538Z,2.13
2022-12-26T14:52:24.552Z,2.70
2022-12-26T14:54:55.430Z,2.40
2022-12-26T14:57:43.923Z,2.55
2022-12-26T15:00:30.011Z,3.15
2022-12-26T15:02:59.364Z,2.33
2022-12-26T15:05:32.550Z,2.10
2022-12-26T15:08:26.821Z,2.50
2022-12-26T15:10:56.007Z,2.97
2022-12-26T15:13:36.508Z,2.40
2022-12-26T15:16:35.153Z,2.65
2022-12-26T15:19:49.088Z,2.35
2022-12-26T15:22:44.711Z,2.33
2022-12-26T15:25:37.164Z,2.22
2022-12-26T15:28:31.905Z,2.40
2022-12-26T15:31:17.162Z,2.28
2022-12-26T15:33:56.167Z,2.03
2022-12-26T15:36:28.621Z,2.50
2022-12-26T15:39:16.761Z,2.88
2022-12-26T15:42:06.446Z,3.15
2022-12-26T15:44:39.891Z,2.28
2022-12-26T15:47:33.210Z,2.00
2022-12-26T15:50:24.812Z,2.60
2022-12-26T15:53:16.034Z,3.40
2022-12-26T15:55:57.663Z,2.60
2022-12-26T15:59:07.269Z,3.28
2022-12-26T16:01:42.971Z,2.63
2022-12-26T16:04:25.356Z,3.28
2022-12-26T16:07:27.298Z,2.90
2022-12-26T16:09:56.189Z,3.45
2022-12-26T16:12:26.899Z,3.00
2022-12-26T16:15:25.525Z,2.67
2022-12-26T16:17:51.998Z,3.72
2022-12-26T16:20:50.557Z,3.42
2022-12-26T16:23:19.782Z,3.13
2022-12-26T16:25:48.192Z,3.30
2022-12-26T16:28:15.303Z,3.67
2022-12-26T16:30:42.377Z,2.97
2022-12-26T16:33:08.846Z,3.90
2022-12-26T16:35:39.288Z,3.88
2022-12-26T16:38:11.581Z,3.75
2022-12-26T16:40:50.068Z,3.97
2022-12-26T16:43:19.498Z,4.43
2022-12-26T16:45:48.675Z,4.28
2022-12-26T16:48:19.555Z,3.67
2022-12-26T16:50:53.127Z,4.50
2022-12-26T16:53:40.390Z,4.20
2022-12-26T16:56:27.975Z,3.30
2022-12-26T16:59:04.568Z,3.92
2022-12-26T17:01:32.762Z,4.47
2022-12-26T17:04:03.776Z,3.47
2022-12-26T17:06:35.483Z,3.35
2022-12-26T17:09:10.769Z,4.55
2022-12-26T17:11:45.019Z,3.72
2022-12-26T17:14:25.284Z,4.13
2022-12-26T17:17:04.274Z,4.47
2022-12-26T17:19:33.486Z,4.20
2022-12-26T17:22:14.959Z,4.65
2022-12-26T17:24:41.979Z,3.92
2022-12-26T17:27:17.561Z,3.33
2022-12-26T17:29:58.250Z,3.60
2022-12-26T17:32:30.911Z,3.90
2022-12-26T17:35:23.405Z,4.03
2022-12-26T17:37:54.637Z,4.47
2022-12-26T17:40:27.290Z,3.72
2022-12-26T17:43:03.918Z,4.57
2022-12-26T17:45:30.332Z,4.57
2022-12-26T17:47:57.632Z,3.38
2022-12-26T17:50:30.063Z,3.38
2022-12-26T17:53:13.138Z,4.78
2022-12-26T17:55:39.897Z,4.13
2022-12-26T17:58:09.346Z,3.55
2022-12-26T18:00:35.713Z,4.30
2022-12-26T18:03:02.203Z,4.65
2022-12-26T18:05:28.730Z,4.50
2022-12-26T18:07:55.464Z,5.28
2022-12-26T18:10:29.124Z,3.28
2022-12-26T18:12:55.869Z,5.07
2022-12-26T18:15:23.223Z,4.80
2022-12-26T18:17:50.720Z,3.70
2022-12-26T18:20:22.854Z,3.33
2022-12-26T18:22:49.354Z,3.40
2022-12-26T18:25:17.658Z,3.65
2022-12-26T18:27:44.704Z,4.05
2022-12-26T18:30:15.404Z,3.95
2022-12-26T18:32:42.000Z,3.42
2022-12-26T18:35:09.540Z,3.72
2022-12-26T18:37:36.346Z,3.65
2022-12-26T18:40:02.988Z,3.72
2022-12-26T18:42:29.325Z,4.43
2022-12-26T18:44:55.916Z,4.85
2022-12-26T18:47:22.772Z,4.00
2022-12-26T18:49:49.454Z,3.65
2022-12-26T18:52:17.558Z,4.43
2022-12-26T18:54:44.594Z,4.25
2022-12-26T18:57:17.280Z,4.03
2022-12-26T18:59:43.709Z,3.63
2022-12-26T19:02:16.303Z,3.65
2022-12-26T19:04:42.706Z,4.38
2022-12-26T19:07:11.117Z,4.75
2022-12-26T19:09:37.517Z,4.80
2022-12-26T19:12:04.047Z,4.10
2022-12-26T19:14:31.382Z,4.63
2022-12-26T19:16:57.806Z,4.50
2022-12-26T19:19:26.552Z,4.03
2022-12-26T19:21:53.105Z,3.58
2022-12-26T19:24:19.551Z,3.85
2022-12-26T19:26:46.050Z,4.72
2022-12-26T19:29:12.492Z,4.95
2022-12-26T19:31:39.107Z,4.15
2022-12-26T19:34:05.550Z,3.80
2022-12-26T19:36:31.985Z,3.67
2022-12-26T19:38:58.853Z,3.50
2022-12-26T19:41:25.374Z,4.00
2022-12-26T19:43:56.418Z,4.05
2022-12-26T19:46:23.871Z,4.05
2022-12-26T19:48:50.899Z,4.00
2022-12-26T19:51:18.838Z,3.83
2022-12-26T19:53:46.179Z,3.67
2022-12-26T19:56:18.522Z,3.35
2022-12-26T19:58:50.534Z,3.22
2022-12-26T20:01:27.829Z,4.40
2022-12-26T20:03:56.975Z,3.72
2022-12-26T20:06:25.983Z,4.72
2022-12-26T20:08:57.010Z,3.78
2022-12-26T20:11:27.385Z,3.78
2022-12-26T20:13:53.970Z,3.95
2022-12-26T20:17:03.013Z,3.63
2022-12-26T20:19:09.116Z,3.13
2022-12-26T20:21:36.252Z,3.60
2022-12-26T20:24:02.827Z,4.25
2022-12-26T20:26:29.701Z,3.92
2022-12-26T20:29:01.134Z,3.83
2022-12-26T20:31:30.057Z,3.75
2022-12-26T20:33:57.641Z,5.13
2022-12-26T20:36:26.945Z,3.85
2022-12-26T20:38:56.571Z,3.78
2022-12-26T20:41:25.695Z,4.30
2022-12-26T20:43:52.428Z,3.35
2022-12-26T20:46:21.485Z,3.55
2022-12-26T20:48:51.193Z,5.63
2022-12-26T20:51:21.192Z,3.72
2022-12-26T20:53:47.587Z,3.15
2022-12-26T20:56:15.542Z,3.40
2022-12-26T20:58:41.975Z,3.75
2022-12-26T21:01:12.248Z,3.35
2022-12-26T21:03:39.263Z,3.97
2022-12-26T21:06:12.998Z,2.78
2022-12-26T21:08:41.513Z,2.97
2022-12-26T21:11:11.209Z,3.15
2022-12-26T21:13:38.762Z,3.83
2022-12-26T21:16:09.842Z,4.22
2022-12-26T21:18:37.290Z,4.20
2022-12-26T21:21:07.625Z,2.97
2022-12-26T21:23:34.409Z,3.90
2022-12-26T21:26:00.870Z,3.13
2022-12-26T21:28:27.427Z,3.45
2022-12-26T21:30:54.265Z,4.13
2022-12-26T21:33:20.704Z,3.65
2022-12-26T21:35:50.724Z,3.17
2022-12-26T21:38:17.500Z,3.63
2022-12-26T21:40:44.701Z,3.97
2022-12-26T21:43:11.163Z,3.35
2022-12-26T21:45:41.337Z,3.53
2022-12-26T21:48:08.282Z,3.45
2022-12-26T21:50:35.059Z,2.92
2022-12-26T21:53:01.738Z,3.22
2022-12-26T21:55:30.850Z,2.70
2022-12-26T21:58:00.658Z,3.47
2022-12-26T22:00:27.110Z,3.70
2022-12-26T22:03:12.416Z,3.83
2022-12-26T22:05:41.040Z,2.97
2022-12-26T22:08:09.580Z,3.63
2022-12-26T22:10:55.940Z,3.42
2022-12-26T22:13:24.354Z,3.58
2022-12-26T22:16:05.083Z,3.30
2022-12-26T22:18:33.030Z,3.17
2022-12-26T22:21:07.220Z,3.92
2022-12-26T22:23:34.167Z,3.00
2022-12-26T22:26:00.867Z,3.55
2022-12-26T22:28:29.439Z,3.53
2022-12-26T22:30:56.500Z,3.60
2022-12-26T22:33:23.117Z,3.63
2022-12-26T22:35:49.703Z,4.10
2022-12-26T22:38:16.134Z,3.35
2022-12-26T22:40:42.559Z,3.22
2022-12-26T22:43:09.162Z,2.97
2022-12-26T22:45:39.611Z,3.13
2022-12-26T22:48:06.144Z,3.28
2022-12-26T22:50:32.580Z,3.50
2022-12-26T22:52:58.953Z,4.32
2022-12-26T22:55:25.300Z,3.47
2022-12-26T22:57:53.348Z,2.78
2022-12-26T23:00:20.873Z,4.10
2022-12-26T23:02:47.392Z,3.17
2022-12-26T23:05:14.383Z,3.08
2022-12-26T23:07:41.050Z,2.70
2022-12-26T23:10:08.652Z,3.20
2022-12-26T23:12:44.371Z,3.17
2022-12-26T23:15:16.769Z,2.88
2022-12-26T23:18:18.911Z,2.75
2022-12-26T23:21:04.720Z,2.85
2022-12-26T23:23:31.477Z,3.33
2022-12-26T23:26:02.222Z,3.10
2022-12-26T23:28:47.387Z,2.88
2022-12-26T23:31:14.415Z,3.13
2022-12-26T23:33:41.066Z,3.05
2022-12-26T23:36:07.897Z,3.08
2022-12-26T23:38:34.366Z,3.00
2022-12-26T23:41:00.812Z,2.67
2022-12-26T23:43:27.300Z,2.60
2022-12-26T23:45:53.709Z,3.20
2022-12-26T23:48:20.340Z,2.72
2022-12-26T23:50:46.936Z,2.60
2022-12-26T23:53:13.412Z,3.13
2022-12-26T23:55:41.488Z,3.03
2022-12-26T23:58:08.605Z,2.78
